createdAt,value
2019-02-09T00:00:30.724Z,23.47
2019-02-09T00:02:59.363Z,24.87
2019-02-09T00:05:27.996Z,28.23
2019-02-09T00:07:56.682Z,24.83
2019-02-09T00:10:28.037Z,24.07
2019-02-09T00:12:56.661Z,24.27
2019-02-09T00:15:25.327Z,23.43
2019-02-09T00:17:53.971Z,22.20
2019-02-09T00:20:22.651Z,24.53
2019-02-09T00:22:51.691Z,23.93
2019-02-09T00:25:24.841Z,23.60
2019-02-09T00:27:53.651Z,23.63
2019-02-09T00:30:24.469Z,23.70
2019-02-09T00:32:53.076Z,24.13
2019-02-09T00:35:22.321Z,25.53
2019-02-09T00:37:50.969Z,25.03
2019-02-09T00:40:24.880Z,28.33
2019-02-09T00:42:53.506Z,27.33
2019-02-09T00:45:27.485Z,26.83
2019-02-09T00:47:56.121Z,25.97
2019-02-09T00:50:24.740Z,28.10
2019-02-09T00:52:53.468Z,27.73
2019-02-09T00:55:23.752Z,29.83
2019-02-09T00:57:52.473Z,30.47
2019-02-09T01:00:31.323Z,32.40
2019-02-09T01:03:00.379Z,33.20
2019-02-09T01:05:38.059Z,30.73
2019-02-09T01:08:06.845Z,29.67
2019-02-09T01:10:35.454Z,31.30
2019-02-09T01:13:04.486Z,30.60
2019-02-09T01:15:33.156Z,30.53
2019-02-09T01:18:04.608Z,27.90
2019-02-09T01:20:33.240Z,27.80
2019-02-09T01:23:02.076Z,25.90
2019-02-09T01:25:30.722Z,25.00
2019-02-09T01:27:59.360Z,25.57
2019-02-09T01:30:32.049Z,25.10
2019-02-09T01:33:00.778Z,26.00
2019-02-09T01:35:29.479Z,25.37
2019-02-09T01:37:58.156Z,27.93
2019-02-09T01:40:28.452Z,30.77
2019-02-09T01:42:58.138Z,30.27
2019-02-09T01:45:35.779Z,31.83
2019-02-09T01:48:04.747Z,33.27
2019-02-09T01:50:33.829Z,30.47
2019-02-09T01:53:02.473Z,32.10
2019-02-09T01:55:31.147Z,32.73
2019-02-09T01:57:59.993Z,32.73
2019-02-09T02:00:36.409Z,33.70
2019-02-09T02:03:08.517Z,33.13
2019-02-09T02:05:37.194Z,30.50
2019-02-09T02:08:06.025Z,31.57
2019-02-09T02:10:37.484Z,28.77
2019-02-09T02:13:08.221Z,28.30
2019-02-09T02:15:38.180Z,25.90
2019-02-09T02:18:08.585Z,26.80
2019-02-09T02:20:37.331Z,25.93
2019-02-09T02:23:06.066Z,26.20
2019-02-09T02:25:34.717Z,25.67
2019-02-09T02:28:03.392Z,25.63
2019-02-09T02:30:34.580Z,24.37
2019-02-09T02:33:03.237Z,23.43
2019-02-09T02:35:31.892Z,23.07
2019-02-09T02:38:03.347Z,23.23
2019-02-09T02:40:31.963Z,23.80
2019-02-09T02:43:00.639Z,22.67
2019-02-09T02:45:29.264Z,21.87
2019-02-09T02:47:57.901Z,23.20
2019-02-09T02:50:29.560Z,23.53
2019-02-09T02:52:58.193Z,24.23
2019-02-09T02:55:31.615Z,24.13
2019-02-09T02:58:00.257Z,23.40
2019-02-09T03:00:32.971Z,24.23
2019-02-09T03:03:02.182Z,23.10
2019-02-09T03:05:31.010Z,24.20
2019-02-09T03:08:02.421Z,24.27
2019-02-09T03:10:31.045Z,22.83
2019-02-09T03:12:59.645Z,25.77
2019-02-09T03:15:30.543Z,27.40
2019-02-09T03:17:59.181Z,28.87
2019-02-09T03:20:27.800Z,27.97
2019-02-09T03:22:56.643Z,24.83
2019-02-09T03:25:32.124Z,22.63
2019-02-09T03:28:00.810Z,24.27
2019-02-09T03:30:29.508Z,26.00
2019-02-09T03:32:58.153Z,24.10
2019-02-09T03:35:26.943Z,24.47
2019-02-09T03:37:55.548Z,24.20
2019-02-09T03:40:28.455Z,24.33
2019-02-09T03:42:57.187Z,23.80
2019-02-09T03:45:32.328Z,23.40
2019-02-09T03:48:01.188Z,23.60
2019-02-09T03:50:31.572Z,24.23
2019-02-09T03:53:01.039Z,24.40
2019-02-09T03:55:30.871Z,24.53
2019-02-09T03:57:59.654Z,24.27
2019-02-09T04:00:33.567Z,23.87
2019-02-09T04:03:02.824Z,24.47
2019-02-09T04:05:31.513Z,25.90
2019-02-09T04:08:00.194Z,25.63
2019-02-09T04:10:29.388Z,25.93
2019-02-09T04:12:58.009Z,25.87
2019-02-09T04:15:27.653Z,27.37
2019-02-09T04:17:56.376Z,49.43
2019-02-09T04:20:25.725Z,95.33
2019-02-09T04:22:54.371Z,101.20
2019-02-09T04:25:26.170Z,76.03
2019-02-09T04:27:54.808Z,49.53
2019-02-09T04:30:25.498Z,43.70
2019-02-09T04:32:54.319Z,43.83
2019-02-09T04:35:23.086Z,39.63
2019-02-09T04:37:52.114Z,37.77
2019-02-09T04:40:32.793Z,37.47
2019-02-09T04:43:01.429Z,35.17
2019-02-09T04:45:30.100Z,37.63
2019-02-09T04:47:58.941Z,34.10
2019-02-09T04:50:27.562Z,36.30
2019-02-09T04:52:56.191Z,36.33
2019-02-09T04:55:26.411Z,36.63
2019-02-09T04:57:55.151Z,35.53
2019-02-09T05:00:30.462Z,35.00
2019-02-09T05:02:59.105Z,34.73
2019-02-09T05:05:28.433Z,39.00
2019-02-09T05:07:57.113Z,36.67
2019-02-09T05:10:26.274Z,33.73
2019-02-09T05:12:55.061Z,36.03
2019-02-09T05:15:23.979Z,36.17
2019-02-09T05:17:52.737Z,34.47
2019-02-09T05:20:24.783Z,32.37
2019-02-09T05:22:54.744Z,31.23
2019-02-09T05:25:23.847Z,31.50
2019-02-09T05:27:52.493Z,33.60
2019-02-09T05:30:22.940Z,33.13
2019-02-09T05:32:51.597Z,32.80
2019-02-09T05:35:24.444Z,29.57
2019-02-09T05:37:53.070Z,29.80
2019-02-09T05:40:26.640Z,31.17
2019-02-09T05:42:55.277Z,30.93
2019-02-09T05:45:26.504Z,29.30
2019-02-09T05:47:55.137Z,29.70
2019-02-09T05:50:23.769Z,29.23
2019-02-09T05:52:52.442Z,29.23
2019-02-09T05:55:27.117Z,29.97
2019-02-09T05:57:56.726Z,31.93
2019-02-09T06:00:45.048Z,31.53
2019-02-09T06:03:16.511Z,33.50
2019-02-09T06:05:45.186Z,38.37
2019-02-09T06:08:13.739Z,43.13
2019-02-09T06:10:45.182Z,46.57
2019-02-09T06:13:13.859Z,52.33
2019-02-09T06:15:43.060Z,49.60
2019-02-09T06:18:11.687Z,45.47
2019-02-09T06:20:40.256Z,40.60
2019-02-09T06:23:08.895Z,36.73
2019-02-09T06:25:40.617Z,34.53
2019-02-09T06:28:09.177Z,33.80
2019-02-09T06:30:40.650Z,33.83
2019-02-09T06:33:09.285Z,34.60
2019-02-09T06:35:37.936Z,33.47
2019-02-09T06:38:06.615Z,34.23
2019-02-09T06:40:38.116Z,34.70
2019-02-09T06:43:06.798Z,33.70
2019-02-09T06:45:35.386Z,35.33
2019-02-09T06:48:28.111Z,33.03
2019-02-09T06:50:58.035Z,28.60
2019-02-09T06:53:26.718Z,30.13
2019-02-09T06:55:55.351Z,31.97
2019-02-09T06:58:24.030Z,32.90
2019-02-09T07:00:52.664Z,38.40
2019-02-09T07:03:21.361Z,41.27
2019-02-09T07:05:50.116Z,35.87
2019-02-09T07:08:18.827Z,32.77
2019-02-09T07:10:47.698Z,31.53
2019-02-09T07:13:19.592Z,28.33
2019-02-09T07:15:48.352Z,30.00
2019-02-09T07:18:17.087Z,27.93
2019-02-09T07:20:45.833Z,25.13
2019-02-09T07:23:14.639Z,27.67
2019-02-09T07:25:43.400Z,27.20
2019-02-09T07:28:12.318Z,28.97
2019-02-09T07:30:41.076Z,31.77
2019-02-09T07:33:09.926Z,33.40
2019-02-09T07:35:38.663Z,28.90
2019-02-09T07:38:10.482Z,31.17
2019-02-09T07:40:39.169Z,28.83
2019-02-09T07:43:12.790Z,29.20
2019-02-09T07:45:41.548Z,29.60
2019-02-09T07:48:10.277Z,26.97
2019-02-09T07:50:42.165Z,31.77
2019-02-09T07:53:10.904Z,32.17
2019-02-09T07:55:39.636Z,34.37
2019-02-09T07:58:09.498Z,30.30
2019-02-09T08:00:38.377Z,30.43
2019-02-09T08:03:12.372Z,27.20
2019-02-09T08:05:41.231Z,26.20
2019-02-09T08:08:14.266Z,28.07
2019-02-09T08:10:42.982Z,31.37
2019-02-09T08:13:11.852Z,29.17
2019-02-09T08:15:40.620Z,32.13
2019-02-09T08:18:09.943Z,31.60
2019-02-09T08:20:38.747Z,29.87
2019-02-09T08:23:09.736Z,29.17
2019-02-09T08:25:39.915Z,29.67
2019-02-09T08:28:11.537Z,29.37
2019-02-09T08:30:42.213Z,28.63
2019-02-09T08:33:14.073Z,27.70
2019-02-09T08:35:43.079Z,28.93
2019-02-09T08:38:12.834Z,27.60
2019-02-09T08:40:41.626Z,28.40
2019-02-09T08:43:10.323Z,27.97
2019-02-09T08:45:39.171Z,29.30
2019-02-09T08:48:08.000Z,30.33
2019-02-09T08:50:54.664Z,33.13
2019-02-09T08:53:23.391Z,28.63
2019-02-09T08:55:52.203Z,26.00
2019-02-09T08:58:21.024Z,26.10
2019-02-09T09:00:49.785Z,30.37
2019-02-09T09:03:18.493Z,26.77
2019-02-09T09:05:47.274Z,23.83
2019-02-09T09:08:16.123Z,23.70
2019-02-09T09:10:44.949Z,24.53
2019-02-09T09:13:13.658Z,24.83
2019-02-09T09:15:48.002Z,28.30
2019-02-09T09:18:16.695Z,24.77
2019-02-09T09:20:54.372Z,24.40
2019-02-09T09:23:23.125Z,24.30
2019-02-09T09:25:51.967Z,26.13
2019-02-09T09:28:20.698Z,25.90
2019-02-09T09:30:49.531Z,24.57
2019-02-09T09:33:18.253Z,22.27
2019-02-09T09:35:47.236Z,23.93
2019-02-09T09:38:15.955Z,23.83
2019-02-09T09:40:44.936Z,27.90
2019-02-09T09:43:13.668Z,24.80
2019-02-09T09:45:43.722Z,24.03
2019-02-09T09:48:15.025Z,24.10
2019-02-09T09:50:43.958Z,23.83
2019-02-09T09:53:12.630Z,25.13
2019-02-09T09:55:43.200Z,23.57
2019-02-09T09:58:11.803Z,21.73
2019-02-09T10:00:40.444Z,21.00
2019-02-09T10:03:09.087Z,24.87
2019-02-09T10:05:40.479Z,24.00
2019-02-09T10:08:09.508Z,22.50
2019-02-09T10:10:38.203Z,22.83
2019-02-09T10:13:06.919Z,22.60
2019-02-09T10:15:35.627Z,20.83
2019-02-09T10:18:04.816Z,19.37
2019-02-09T10:20:36.243Z,20.90
2019-02-09T10:23:04.981Z,20.03
2019-02-09T10:25:33.620Z,20.90
2019-02-09T10:28:02.298Z,22.07
2019-02-09T10:30:32.645Z,21.10
2019-02-09T10:33:01.415Z,21.80
2019-02-09T10:35:30.197Z,19.27
2019-02-09T10:37:58.874Z,19.77
2019-02-09T10:40:32.470Z,19.17
2019-02-09T10:43:01.806Z,20.37
2019-02-09T10:45:31.708Z,19.87
2019-02-09T10:48:02.181Z,19.03
2019-02-09T10:50:35.776Z,19.97
2019-02-09T10:53:04.850Z,19.90
2019-02-09T10:55:33.601Z,17.03
2019-02-09T10:58:02.266Z,19.07
2019-02-09T11:00:42.678Z,19.50
2019-02-09T11:03:11.669Z,19.37
2019-02-09T11:05:43.335Z,18.50
2019-02-09T11:08:12.097Z,17.63
2019-02-09T11:10:40.729Z,18.87
2019-02-09T11:13:09.409Z,18.97
2019-02-09T11:15:38.040Z,19.17
2019-02-09T11:18:07.438Z,18.97
2019-02-09T11:20:36.151Z,18.97
2019-02-09T11:23:05.322Z,19.13
2019-02-09T11:25:33.961Z,19.77
2019-02-09T11:28:02.761Z,18.63
2019-02-09T11:30:31.797Z,18.40
2019-02-09T11:33:02.510Z,17.93
2019-02-09T11:35:30.847Z,18.37
2019-02-09T11:37:59.522Z,17.93
2019-02-09T11:40:32.454Z,18.97
2019-02-09T11:43:01.978Z,17.70
2019-02-09T11:45:32.364Z,17.87
2019-02-09T11:48:01.030Z,16.73
2019-02-09T11:50:29.667Z,16.13
2019-02-09T11:53:00.783Z,17.00
2019-02-09T11:55:29.410Z,17.60
2019-02-09T11:58:00.803Z,16.60
2019-02-09T12:00:38.194Z,20.27
2019-02-09T12:03:15.094Z,18.57
2019-02-09T12:05:43.092Z,17.03
2019-02-09T12:08:11.877Z,17.77
2019-02-09T12:10:40.503Z,18.87
2019-02-09T12:13:10.740Z,18.67
2019-02-09T12:15:39.878Z,16.87
2019-02-09T12:18:11.516Z,18.10
2019-02-09T12:20:40.246Z,16.37
2019-02-09T12:23:08.868Z,16.97
2019-02-09T12:25:38.953Z,18.23
2019-02-09T12:28:10.476Z,18.07
2019-02-09T12:30:40.704Z,17.87
2019-02-09T12:33:10.969Z,18.40
2019-02-09T12:35:39.587Z,17.23
2019-02-09T12:38:09.803Z,17.20
2019-02-09T12:40:39.081Z,18.10
2019-02-09T12:43:07.725Z,19.80
2019-02-09T12:45:40.383Z,23.23
2019-02-09T12:48:11.011Z,20.40
2019-02-09T12:50:39.632Z,21.03
2019-02-09T12:53:11.258Z,21.50
2019-02-09T12:55:39.875Z,21.80
2019-02-09T12:58:08.506Z,20.57
2019-02-09T13:00:38.764Z,18.60
2019-02-09T13:03:15.793Z,20.40
2019-02-09T13:05:47.600Z,18.77
2019-02-09T13:08:16.242Z,19.53
2019-02-09T13:10:47.893Z,20.67
2019-02-09T13:13:16.517Z,18.90
2019-02-09T13:15:45.187Z,18.87
2019-02-09T13:18:16.661Z,18.57
2019-02-09T13:20:48.380Z,18.10
2019-02-09T13:23:17.004Z,17.83
2019-02-09T13:25:45.639Z,17.57
2019-02-09T13:28:14.303Z,18.87
2019-02-09T13:30:43.346Z,20.23
2019-02-09T13:33:15.005Z,20.03
2019-02-09T13:35:43.673Z,22.63
2019-02-09T13:38:12.355Z,20.00
2019-02-09T13:40:40.981Z,17.93
2019-02-09T13:43:09.611Z,18.27
2019-02-09T13:45:46.877Z,17.83
2019-02-09T13:48:15.609Z,17.17
2019-02-09T13:50:44.286Z,17.17
2019-02-09T13:53:12.924Z,16.67
2019-02-09T13:55:41.611Z,18.00
2019-02-09T13:58:12.891Z,17.97
2019-02-09T14:00:41.569Z,18.40
2019-02-09T14:03:10.318Z,19.40
2019-02-09T14:05:38.993Z,19.43
2019-02-09T14:08:07.762Z,18.53
2019-02-09T14:10:36.403Z,18.97
2019-02-09T14:13:05.032Z,18.63
2019-02-09T14:15:35.788Z,17.43
2019-02-09T14:18:07.289Z,18.93
2019-02-09T14:20:35.966Z,18.63
2019-02-09T14:23:07.848Z,19.40
2019-02-09T14:25:36.677Z,19.33
2019-02-09T14:28:06.861Z,21.40
2019-02-09T14:30:39.791Z,22.37
2019-02-09T14:33:12.263Z,22.63
2019-02-09T14:35:43.009Z,20.03
2019-02-09T14:38:11.782Z,22.93
2019-02-09T14:40:40.611Z,21.37
2019-02-09T14:43:10.095Z,21.37
2019-02-09T14:45:41.051Z,21.77
2019-02-09T14:48:12.661Z,22.87
2019-02-09T14:50:41.343Z,21.60
2019-02-09T14:53:10.178Z,22.37
2019-02-09T14:55:39.730Z,22.97
2019-02-09T14:58:08.817Z,24.30
2019-02-09T15:00:46.057Z,24.10
2019-02-09T15:03:25.674Z,25.53
2019-02-09T15:05:48.614Z,26.13
2019-02-09T15:08:17.400Z,27.67
2019-02-09T15:10:46.010Z,27.33
2019-02-09T15:13:15.003Z,27.00
2019-02-09T15:15:49.373Z,24.57
2019-02-09T15:18:18.006Z,24.97
2019-02-09T15:21:04.563Z,26.43
2019-02-09T15:23:33.219Z,27.23
2019-02-09T15:26:04.980Z,27.90
2019-02-09T15:28:36.584Z,26.43
2019-02-09T15:31:08.239Z,27.37
2019-02-09T15:33:36.986Z,32.13
2019-02-09T15:36:05.712Z,31.23
2019-02-09T15:38:34.392Z,31.70
2019-02-09T15:41:03.086Z,33.90
2019-02-09T15:43:31.761Z,35.97
2019-02-09T15:46:03.060Z,41.73
2019-02-09T15:48:31.724Z,46.33
2019-02-09T15:51:00.365Z,48.63
2019-02-09T15:53:29.044Z,51.97
2019-02-09T15:56:00.415Z,53.57
2019-02-09T15:58:29.060Z,52.73
2019-02-09T16:00:57.718Z,53.23
2019-02-09T16:03:26.352Z,52.47
2019-02-09T16:05:58.510Z,59.40
2019-02-09T16:08:27.063Z,77.50
2019-02-09T16:10:55.698Z,99.30
2019-02-09T16:13:24.326Z,116.73
2019-02-09T16:15:52.967Z,119.87
2019-02-09T16:18:24.392Z,103.57
2019-02-09T16:20:53.049Z,91.83
2019-02-09T16:23:21.692Z,105.43
2019-02-09T16:25:50.321Z,96.53
2019-02-09T16:28:18.978Z,87.63
2019-02-09T16:30:47.616Z,79.60
2019-02-09T16:33:18.956Z,73.30
2019-02-09T16:35:47.520Z,64.93
2019-02-09T16:38:16.074Z,65.23
2019-02-09T16:40:44.880Z,56.93
2019-02-09T16:43:13.519Z,68.97
2019-02-09T16:45:42.169Z,67.57
2019-02-09T16:48:14.638Z,66.07
2019-02-09T16:50:43.278Z,73.23
2019-02-09T16:53:11.917Z,72.87
2019-02-09T16:55:40.554Z,78.73
2019-02-09T16:58:09.354Z,118.70
2019-02-09T17:00:43.036Z,122.37
2019-02-09T17:03:13.214Z,99.47
2019-02-09T17:05:42.798Z,99.57
2019-02-09T17:08:14.838Z,102.03
2019-02-09T17:10:43.543Z,92.40
2019-02-09T17:13:12.097Z,88.97
2019-02-09T17:15:40.768Z,92.03
2019-02-09T17:18:12.425Z,92.97
2019-02-09T17:20:41.070Z,93.13
2019-02-09T17:23:09.728Z,124.07
2019-02-09T17:25:41.247Z,118.50
2019-02-09T17:28:12.747Z,137.70
2019-02-09T17:30:41.391Z,135.43
2019-02-09T17:33:10.045Z,111.80
2019-02-09T17:35:38.756Z,123.63
2019-02-09T17:38:07.544Z,133.27
2019-02-09T17:40:42.186Z,132.00
2019-02-09T17:43:15.061Z,133.70
2019-02-09T17:45:49.289Z,137.60
2019-02-09T17:48:20.612Z,127.77
2019-02-09T17:50:49.263Z,164.23
2019-02-09T17:53:20.758Z,206.47
2019-02-09T17:55:49.486Z,138.23
2019-02-09T17:58:22.320Z,174.70
2019-02-09T18:00:55.664Z,189.23
2019-02-09T18:03:24.385Z,178.87
2019-02-09T18:05:53.066Z,176.50
2019-02-09T18:08:25.710Z,226.13
2019-02-09T18:10:54.324Z,256.80
2019-02-09T18:13:28.744Z,305.33
2019-02-09T18:15:57.379Z,260.77
2019-02-09T18:18:26.069Z,237.50
2019-02-09T18:20:54.719Z,251.73
2019-02-09T18:23:23.291Z,250.20
2019-02-09T18:25:52.052Z,226.70
2019-02-09T18:28:20.792Z,215.53
2019-02-09T18:30:52.510Z,231.90
2019-02-09T18:33:27.006Z,233.10
2019-02-09T18:36:01.793Z,229.80
2019-02-09T18:38:30.488Z,229.97
2019-02-09T18:41:01.972Z,229.47
2019-02-09T18:43:30.816Z,227.33
2019-02-09T18:45:59.517Z,221.17
2019-02-09T18:48:32.614Z,226.80
2019-02-09T18:51:01.242Z,230.10
2019-02-09T18:53:32.667Z,211.87
2019-02-09T18:56:01.308Z,201.97
2019-02-09T18:58:39.264Z,173.93
2019-02-09T19:01:10.647Z,181.47
2019-02-09T19:03:39.320Z,200.53
2019-02-09T19:06:07.976Z,206.50
2019-02-09T19:08:36.643Z,213.67
2019-02-09T19:11:05.390Z,213.30
2019-02-09T19:13:34.097Z,213.10
2019-02-09T19:16:02.828Z,202.37
2019-02-09T19:18:31.561Z,136.13
2019-02-09T19:21:01.020Z,138.57
2019-02-09T19:23:29.683Z,109.17
2019-02-09T19:25:58.374Z,106.97
2019-02-09T19:28:30.278Z,108.90
2019-02-09T19:31:02.180Z,98.83
2019-02-09T19:33:30.889Z,99.77
2019-02-09T19:36:02.322Z,93.10
2019-02-09T19:38:31.010Z,89.60
2019-02-09T19:40:59.585Z,85.20
2019-02-09T19:43:28.412Z,92.13
2019-02-09T19:45:57.065Z,82.87
2019-02-09T19:48:25.702Z,77.97
2019-02-09T19:50:54.466Z,78.80
2019-02-09T19:53:23.023Z,80.87
2019-02-09T19:55:56.345Z,77.57
2019-02-09T19:58:25.045Z,84.90
2019-02-09T20:00:53.756Z,72.00
2019-02-09T20:03:22.406Z,66.17
2019-02-09T20:05:51.052Z,70.73
2019-02-09T20:08:19.798Z,68.70
2019-02-09T20:10:48.455Z,84.17
2019-02-09T20:13:17.713Z,90.03
2019-02-09T20:15:46.351Z,79.23
2019-02-09T20:18:23.429Z,82.30
2019-02-09T20:20:52.070Z,73.73
2019-02-09T20:23:20.763Z,70.50
2019-02-09T20:25:49.584Z,67.20
2019-02-09T20:28:18.251Z,60.07
2019-02-09T20:30:49.830Z,63.50
2019-02-09T20:33:21.424Z,74.13
2019-02-09T20:35:50.083Z,77.27
2019-02-09T20:38:18.747Z,79.07
2019-02-09T20:40:59.641Z,79.07
2019-02-09T20:43:28.278Z,72.30
2019-02-09T20:45:57.544Z,72.17
2019-02-09T20:48:26.177Z,76.43
2019-02-09T20:50:55.717Z,73.73
2019-02-09T20:53:25.202Z,79.67
2019-02-09T20:55:53.855Z,95.93
2019-02-09T20:58:29.765Z,102.27
2019-02-09T21:00:58.419Z,118.43
2019-02-09T21:03:27.068Z,94.77
2019-02-09T21:06:02.197Z,91.60
2019-02-09T21:08:30.928Z,91.57
2019-02-09T21:10:59.516Z,91.87
2019-02-09T21:13:32.468Z,116.93
2019-02-09T21:16:02.889Z,108.53
2019-02-09T21:18:31.726Z,119.40
2019-02-09T21:21:00.452Z,127.70
2019-02-09T21:23:29.111Z,128.27
2019-02-09T21:25:57.767Z,166.37
2019-02-09T21:28:30.828Z,197.93
2019-02-09T21:30:59.482Z,193.93
2019-02-09T21:33:28.288Z,208.03
2019-02-09T21:35:56.882Z,187.70
2019-02-09T21:38:25.462Z,184.60
2019-02-09T21:40:54.164Z,203.63
2019-02-09T21:43:29.757Z,167.07
2019-02-09T21:46:01.397Z,150.17
2019-02-09T21:48:30.055Z,140.27
2019-02-09T21:50:58.757Z,124.90
2019-02-09T21:53:27.419Z,124.00
2019-02-09T21:55:59.022Z,124.50
2019-02-09T21:58:27.604Z,113.87
2019-02-09T22:00:56.281Z,103.27
2019-02-09T22:03:26.589Z,106.00
2019-02-09T22:05:55.363Z,95.57
2019-02-09T22:08:23.943Z,100.73
2019-02-09T22:10:52.578Z,103.33
2019-02-09T22:13:21.236Z,103.80
2019-02-09T22:15:52.633Z,102.00
2019-02-09T22:18:27.882Z,106.60
2019-02-09T22:20:56.552Z,103.57
2019-02-09T22:23:25.208Z,95.83
2019-02-09T22:25:53.936Z,90.43
2019-02-09T22:28:22.604Z,88.03
2019-02-09T22:30:51.445Z,89.17
2019-02-09T22:33:24.723Z,88.23
2019-02-09T22:35:59.862Z,86.17
2019-02-09T22:38:24.773Z,91.23
2019-02-09T22:40:53.447Z,91.60
2019-02-09T22:43:22.170Z,89.47
2019-02-09T22:45:53.850Z,84.93
2019-02-09T22:48:22.526Z,96.13
2019-02-09T22:50:51.189Z,95.20
2019-02-09T22:53:19.764Z,98.53
2019-02-09T22:55:52.656Z,104.20
2019-02-09T22:58:21.326Z,104.07
2019-02-09T23:00:53.450Z,109.03
2019-02-09T23:03:25.445Z,109.23
2019-02-09T23:06:12.251Z,106.40
2019-02-09T23:08:49.927Z,108.67
2019-02-09T23:11:18.568Z,105.37
2019-02-09T23:13:47.244Z,111.97
2019-02-09T23:16:15.879Z,114.97
2019-02-09T23:18:44.463Z,116.67
2019-02-09T23:21:13.123Z,107.90
2019-02-09T23:23:41.827Z,103.77
2019-02-09T23:26:10.468Z,110.07
2019-02-09T23:28:39.127Z,107.17
2019-02-09T23:31:07.810Z,105.47
2019-02-09T23:33:36.396Z,104.17
2019-02-09T23:36:16.205Z,102.63
2019-02-09T23:38:39.399Z,99.67
2019-02-09T23:41:08.044Z,99.63
2019-02-09T23:43:36.748Z,110.57
2019-02-09T23:46:05.399Z,108.63
2019-02-09T23:48:34.046Z,111.60
2019-02-09T23:51:02.740Z,106.43
2019-02-09T23:53:31.324Z,113.53
2019-02-09T23:56:00.026Z,117.23
2019-02-09T23:58:28.717Z,119.70
